航空気象通報

ウインドサーファーのための航空気象通報による風予報です。

3/19-3/21の航空気象通報

2017年03月20日 00時25分40秒 | TAF
羽田空港
TAF RJTT 191105Z 1912/2018 34012KT 9999 FEW030
TEMPO 1915/1918 34022G32KT
BECMG 2000/2003 04008KT
BECMG 2003/2006 14010KT
BECMG 2006/2009 20012KT
日本時間19日21時-20日09時:340度から12ノットの風
但し、20日00-03時の間:ときどき340度から22ノット、突風32ノット
09-12時:風が変化
12時:040度から8ノットの風
12-15時:風が変化
15時:140度から10ノットの風
15-18時:風が変化
18時-21日03時:200度から12ノットの風


静岡空港
TAF RJNS 191105Z 1912/2018 28010KT 9999 FEW030
BECMG 1921/1923 36004KT
BECMG 2000/2003 16012KT
BECMG 2009/2012 32004KT
日本時間19日21時-20日06時:280度から10ノットの風
06-08時:風が変化
08-09時:360度から4ノットの風
09-12時:風が変化
12-18時:160度から12ノットの風
18-21時:風が変化
21時-21日03時:320度から4ノットの風


福岡空港
TAF RJFF 191112Z 1912/2018 16006KT 9999 FEW030
TEMPO 2006/2012 4000 -SHRA BR
TEMPO 2012/2018 3000 -SHRA BR
日本時間19日21時-21日03時:160度から6ノットの風

但し、20日15時-21日03時の間:ときどき

那覇空港
TAF AMD ROAH 191135Z 1912/2018 16003KT 9999 FEW006 BKN015
TEMPO 1912/1921 FEW005 BKN008
BECMG 2003/2006 22010KT
TEMPO 2012/2015 4000 SHRA FEW008 BKN015 FEW020CB
BECMG 2012/2015 35008KT
日本時間19日21時-20日12時:160度から3ノットの風
12-15時:風が変化
15-21時:220度から10ノットの風
21-24時:風が変化
21日00-03時:350度から8ノットの風

但し、20日21-24時の間:ときどき

石垣空港
TAF ROIG 191110Z 1912/2018 06005KT 9999 FEW015 BKN040
BECMG 1916/1918 18006KT
日本時間19日21時-20日01時:060度から5ノットの風
01時-21日03時:180度から6ノットの風


マウイのカフルイ空港
PHOG 191121Z 1912/2012 04010KT P6SM FEW035
TEMPO 1912/1916 BKN030
FM192000 04015G25KT P6SM FEW030 SCT050
FM200500 04010KT P6SM FEW035 AMD LTD TO VIS AND WIND TIL 191600
ハワイ時間19日02-10時:040度から10ノットの風
10-19時:040度から15ノット、突風25ノット
19時-20日02時:040度から10ノットの風

但し、19日02-06時の間:ときどき

サイパン空港
TAF PGSN 191132Z 1912/2012 05012G18KT P6SM VCSH FEW018 BKN050 BKN120
マリアナ時間19日22時-21日22時:050度から12ノット、突風18ノット

ジャンル:
お天気
コメント   この記事についてブログを書く
この記事をはてなブックマークに追加
« 3/18-3/20の航空気象通報 | トップ | 3/20-3/22の航空気象通報 »
最近の画像もっと見る

コメントを投稿

ブログ作成者から承認されるまでコメントは反映されません。

コメント利用規約に同意の上コメント投稿を行ってください。

数字4桁を入力し、投稿ボタンを押してください。

あわせて読む

トラックバック

この記事のトラックバック  Ping-URL
ブログ作成者から承認されるまでトラックバックは反映されません。
  • 30日以上前の記事に対するトラックバックは受け取らないよう設定されております。
  • 送信元の記事内容が半角英数のみのトラックバックは受け取らないよう設定されております。
  • このブログへのリンクがない記事からのトラックバックは受け取らないよう設定されております。
  • ※ブログ管理者のみ、編集画面で設定の変更が可能です。